sensor_id;sensor_type;location;lat;lon;timestamp;temperature;humidity
22202;DHT22;11266;51.522;6.302;2023-08-20T00:00:43;19.10;99.90
22202;DHT22;11266;51.522;6.302;2023-08-20T00:01:28;19.10;99.90
22202;DHT22;11266;51.522;6.302;2023-08-20T00:02:15;19.10;99.90
22202;DHT22;11266;51.522;6.302;2023-08-20T00:03:04;19.10;99.90
22202;DHT22;11266;51.522;6.302;2023-08-20T00:03:54;19.10;99.90
22202;DHT22;11266;51.522;6.302;2023-08-20T00:04:41;19.10;99.90
22202;DHT22;11266;51.522;6.302;2023-08-20T00:05:28;19.10;99.90
22202;DHT22;11266;51.522;6.302;2023-08-20T00:06:14;19.10;99.90
22202;DHT22;11266;51.522;6.302;2023-08-20T00:07:00;19.10;99.90
22202;DHT22;11266;51.522;6.302;2023-08-20T00:07:45;19.10;99.90
22202;DHT22;11266;51.522;6.302;2023-08-20T00:08:31;19.10;99.90
22202;DHT22;11266;51.522;6.302;2023-08-20T00:09:16;19.10;99.90
22202;DHT22;11266;51.522;6.302;2023-08-20T00:10:03;19.10;99.90
22202;DHT22;11266;51.522;6.302;2023-08-20T00:10:49;19.00;99.90
22202;DHT22;11266;51.522;6.302;2023-08-20T00:11:36;19.00;99.90
22202;DHT22;11266;51.522;6.302;2023-08-20T00:12:22;19.00;99.90
22202;DHT22;11266;51.522;6.302;2023-08-20T00:13:07;19.00;99.90
22202;DHT22;11266;51.522;6.302;2023-08-20T00:13:53;19.00;99.90
22202;DHT22;11266;51.522;6.302;2023-08-20T00:15:43;19.00;99.90
22202;DHT22;11266;51.522;6.302;2023-08-20T00:16:29;19.00;99.90
22202;DHT22;11266;51.522;6.302;2023-08-20T00:17:15;19.00;99.90
22202;DHT22;11266;51.522;6.302;2023-08-20T00:18:01;19.00;99.90
22202;DHT22;11266;51.522;6.302;2023-08-20T00:18:47;18.90;99.90
22202;DHT22;11266;51.522;6.302;2023-08-20T00:19:33;18.90;99.90
22202;DHT22;11266;51.522;6.302;2023-08-20T00:20:19;19.00;99.90
22202;DHT22;11266;51.522;6.302;2023-08-20T00:21:05;19.00;99.90
22202;DHT22;11266;51.522;6.302;2023-08-20T00:21:51;19.00;99.90
22202;DHT22;11266;51.522;6.302;2023-08-20T00:22:37;19.00;99.90
22202;DHT22;11266;51.522;6.302;2023-08-20T00:23:23;18.90;99.90
22202;DHT22;11266;51.522;6.302;2023-08-20T00:24:09;19.00;99.90
22202;DHT22;11266;51.522;6.302;2023-08-20T00:24:55;19.00;99.90
22202;DHT22;11266;51.522;6.302;2023-08-20T00:25:41;18.90;99.90
22202;DHT22;11266;51.522;6.302;2023-08-20T00:26:27;18.90;99.90
22202;DHT22;11266;51.522;6.302;2023-08-20T00:27:12;18.90;99.90
22202;DHT22;11266;51.522;6.302;2023-08-20T00:27:58;18.90;99.90
22202;DHT22;11266;51.522;6.302;2023-08-20T00:28:43;18.90;99.90
22202;DHT22;11266;51.522;6.302;2023-08-20T00:29:29;18.90;99.90
22202;DHT22;11266;51.522;6.302;2023-08-20T00:30:14;18.90;99.90
22202;DHT22;11266;51.522;6.302;2023-08-20T00:31:00;18.90;99.90
22202;DHT22;11266;51.522;6.302;2023-08-20T00:31:46;18.90;99.90
22202;DHT22;11266;51.522;6.302;2023-08-20T00:32:32;18.90;99.90
22202;DHT22;11266;51.522;6.302;2023-08-20T00:33:17;18.90;99.90
22202;DHT22;11266;51.522;6.302;2023-08-20T00:34:03;18.80;99.90
22202;DHT22;11266;51.522;6.302;2023-08-20T00:34:49;18.90;99.90
22202;DHT22;11266;51.522;6.302;2023-08-20T00:35:34;18.90;99.90
22202;DHT22;11266;51.522;6.302;2023-08-20T00:36:20;18.80;99.90
22202;DHT22;11266;51.522;6.302;2023-08-20T00:37:05;18.90;99.90
22202;DHT22;11266;51.522;6.302;2023-08-20T00:37:51;18.80;99.90
22202;DHT22;11266;51.522;6.302;2023-08-20T00:38:37;18.80;99.90
22202;DHT22;11266;51.522;6.302;2023-08-20T00:39:22;18.80;99.90
22202;DHT22;11266;51.522;6.302;2023-08-20T00:40:08;18.80;99.90
22202;DHT22;11266;51.522;6.302;2023-08-20T00:40:55;18.80;99.90
22202;DHT22;11266;51.522;6.302;2023-08-20T00:41:40;18.80;99.90
22202;DHT22;11266;51.522;6.302;2023-08-20T00:42:26;18.80;99.90
22202;DHT22;11266;51.522;6.302;2023-08-20T00:43:11;18.80;99.90
22202;DHT22;11266;51.522;6.302;2023-08-20T00:43:57;18.80;99.90
22202;DHT22;11266;51.522;6.302;2023-08-20T00:44:43;18.80;99.90
22202;DHT22;11266;51.522;6.302;2023-08-20T00:45:31;18.70;99.90
22202;DHT22;11266;51.522;6.302;2023-08-20T00:46:17;18.70;99.90
22202;DHT22;11266;51.522;6.302;2023-08-20T00:47:04;18.70;99.90
22202;DHT22;11266;51.522;6.302;2023-08-20T00:47:50;18.70;99.90
22202;DHT22;11266;51.522;6.302;2023-08-20T00:48:36;18.80;99.90
22202;DHT22;11266;51.522;6.302;2023-08-20T00:49:22;18.80;99.90
22202;DHT22;11266;51.522;6.302;2023-08-20T00:50:09;18.70;99.90
22202;DHT22;11266;51.522;6.302;2023-08-20T00:50:54;18.70;99.90
22202;DHT22;11266;51.522;6.302;2023-08-20T00:51:40;18.70;99.90
22202;DHT22;11266;51.522;6.302;2023-08-20T00:52:25;18.70;99.90
22202;DHT22;11266;51.522;6.302;2023-08-20T00:53:12;18.70;99.90
22202;DHT22;11266;51.522;6.302;2023-08-20T00:53:59;18.70;99.90
22202;DHT22;11266;51.522;6.302;2023-08-20T00:54:47;18.70;99.90
22202;DHT22;11266;51.522;6.302;2023-08-20T00:55:33;18.70;99.90
22202;DHT22;11266;51.522;6.302;2023-08-20T00:56:18;18.70;99.90
22202;DHT22;11266;51.522;6.302;2023-08-20T00:57:04;18.70;99.90
22202;DHT22;11266;51.522;6.302;2023-08-20T00:57:49;18.70;99.90
22202;DHT22;11266;51.522;6.302;2023-08-20T00:58:35;18.70;99.90
22202;DHT22;11266;51.522;6.302;2023-08-20T00:59:21;18.70;99.90
22202;DHT22;11266;51.522;6.302;2023-08-20T01:00:07;18.80;99.90
22202;DHT22;11266;51.522;6.302;2023-08-20T01:00:56;18.70;99.90
22202;DHT22;11266;51.522;6.302;2023-08-20T01:01:41;18.70;99.90
22202;DHT22;11266;51.522;6.302;2023-08-20T01:02:27;18.70;99.90
22202;DHT22;11266;51.522;6.302;2023-08-20T01:03:13;18.70;99.90
22202;DHT22;11266;51.522;6.302;2023-08-20T01:03:59;18.70;99.90
22202;DHT22;11266;51.522;6.302;2023-08-20T01:04:46;18.70;99.90
22202;DHT22;11266;51.522;6.302;2023-08-20T01:05:37;18.70;99.90
22202;DHT22;11266;51.522;6.302;2023-08-20T01:06:42;18.70;99.90
22202;DHT22;11266;51.522;6.302;2023-08-20T01:08:40;18.70;99.90
22202;DHT22;11266;51.522;6.302;2023-08-20T01:10:53;18.70;99.90
22202;DHT22;11266;51.522;6.302;2023-08-20T01:11:49;18.70;99.90
22202;DHT22;11266;51.522;6.302;2023-08-20T01:12:38;18.70;99.90
22202;DHT22;11266;51.522;6.302;2023-08-20T01:13:24;18.70;99.90
22202;DHT22;11266;51.522;6.302;2023-08-20T01:14:16;18.70;99.90
22202;DHT22;11266;51.522;6.302;2023-08-20T01:15:02;18.70;99.90
22202;DHT22;11266;51.522;6.302;2023-08-20T01:15:48;18.70;99.90
22202;DHT22;11266;51.522;6.302;2023-08-20T01:16:33;18.70;99.90
22202;DHT22;11266;51.522;6.302;2023-08-20T01:17:19;18.70;99.90
22202;DHT22;11266;51.522;6.302;2023-08-20T01:18:05;18.70;99.90
22202;DHT22;11266;51.522;6.302;2023-08-20T01:18:50;18.70;99.90
22202;DHT22;11266;51.522;6.302;2023-08-20T01:19:37;18.70;99.90
22202;DHT22;11266;51.522;6.302;2023-08-20T01:20:39;18.70;99.90
22202;DHT22;11266;51.522;6.302;2023-08-20T01:21:38;18.70;99.90
22202;DHT22;11266;51.522;6.302;2023-08-20T01:24:57;18.70;99.90
22202;DHT22;11266;51.522;6.302;2023-08-20T01:26:07;18.70;99.90
22202;DHT22;11266;51.522;6.302;2023-08-20T01:29:10;18.70;99.90
22202;DHT22;11266;51.522;6.302;2023-08-20T01:29:57;18.60;99.90
22202;DHT22;11266;51.522;6.302;2023-08-20T01:30:44;18.70;99.90
22202;DHT22;11266;51.522;6.302;2023-08-20T01:31:30;18.70;99.90
22202;DHT22;11266;51.522;6.302;2023-08-20T01:32:16;18.60;99.90
22202;DHT22;11266;51.522;6.302;2023-08-20T01:33:03;18.60;99.90
22202;DHT22;11266;51.522;6.302;2023-08-20T01:33:49;18.60;99.90
22202;DHT22;11266;51.522;6.302;2023-08-20T01:34:35;18.60;99.90
22202;DHT22;11266;51.522;6.302;2023-08-20T01:35:24;18.60;99.90
22202;DHT22;11266;51.522;6.302;2023-08-20T01:36:11;18.60;99.90
22202;DHT22;11266;51.522;6.302;2023-08-20T01:36:57;18.60;99.90
22202;DHT22;11266;51.522;6.302;2023-08-20T01:37:43;18.60;99.90
22202;DHT22;11266;51.522;6.302;2023-08-20T01:38:28;18.60;99.90
22202;DHT22;11266;51.522;6.302;2023-08-20T01:39:14;18.60;99.90
22202;DHT22;11266;51.522;6.302;2023-08-20T01:39:59;18.60;99.90
22202;DHT22;11266;51.522;6.302;2023-08-20T01:40:45;18.60;99.90
22202;DHT22;11266;51.522;6.302;2023-08-20T01:41:31;18.60;99.90
22202;DHT22;11266;51.522;6.302;2023-08-20T01:42:17;18.60;99.90
22202;DHT22;11266;51.522;6.302;2023-08-20T01:43:03;18.60;99.90
22202;DHT22;11266;51.522;6.302;2023-08-20T01:43:49;18.50;99.90
22202;DHT22;11266;51.522;6.302;2023-08-20T01:44:34;18.60;99.90
22202;DHT22;11266;51.522;6.302;2023-08-20T01:45:20;18.50;99.90
22202;DHT22;11266;51.522;6.302;2023-08-20T01:46:07;18.50;99.90
22202;DHT22;11266;51.522;6.302;2023-08-20T01:46:53;18.50;99.90
22202;DHT22;11266;51.522;6.302;2023-08-20T01:47:38;18.50;99.90
22202;DHT22;11266;51.522;6.302;2023-08-20T01:48:24;18.50;99.90
22202;DHT22;11266;51.522;6.302;2023-08-20T01:49:09;18.50;99.90
22202;DHT22;11266;51.522;6.302;2023-08-20T01:49:55;18.50;99.90
22202;DHT22;11266;51.522;6.302;2023-08-20T01:50:40;18.50;99.90
22202;DHT22;11266;51.522;6.302;2023-08-20T01:51:26;18.50;99.90
22202;DHT22;11266;51.522;6.302;2023-08-20T01:52:11;18.50;99.90
22202;DHT22;11266;51.522;6.302;2023-08-20T01:52:57;18.50;99.90
22202;DHT22;11266;51.522;6.302;2023-08-20T01:53:43;18.50;99.90
22202;DHT22;11266;51.522;6.302;2023-08-20T01:54:28;18.50;99.90
22202;DHT22;11266;51.522;6.302;2023-08-20T01:55:14;18.50;99.90
22202;DHT22;11266;51.522;6.302;2023-08-20T01:55:59;18.50;99.90
22202;DHT22;11266;51.522;6.302;2023-08-20T01:56:45;18.50;99.90
22202;DHT22;11266;51.522;6.302;2023-08-20T01:57:31;18.50;99.90
22202;DHT22;11266;51.522;6.302;2023-08-20T01:58:17;18.50;99.90
22202;DHT22;11266;51.522;6.302;2023-08-20T01:59:03;18.50;99.90
22202;DHT22;11266;51.522;6.302;2023-08-20T01:59:48;18.50;99.90
22202;DHT22;11266;51.522;6.302;2023-08-20T02:00:34;18.50;99.90
22202;DHT22;11266;51.522;6.302;2023-08-20T02:01:19;18.50;99.90
22202;DHT22;11266;51.522;6.302;2023-08-20T02:02:05;18.50;99.90
22202;DHT22;11266;51.522;6.302;2023-08-20T02:02:51;18.40;99.90
22202;DHT22;11266;51.522;6.302;2023-08-20T02:03:38;18.40;99.90
22202;DHT22;11266;51.522;6.302;2023-08-20T02:04:24;18.50;99.90
22202;DHT22;11266;51.522;6.302;2023-08-20T02:05:09;18.50;99.90
22202;DHT22;11266;51.522;6.302;2023-08-20T02:05:56;18.50;99.90
22202;DHT22;11266;51.522;6.302;2023-08-20T02:06:41;18.40;99.90
22202;DHT22;11266;51.522;6.302;2023-08-20T02:07:27;18.40;99.90
22202;DHT22;11266;51.522;6.302;2023-08-20T02:08:12;18.40;99.90
22202;DHT22;11266;51.522;6.302;2023-08-20T02:08:58;18.40;99.90
22202;DHT22;11266;51.522;6.302;2023-08-20T02:09:43;18.40;99.90
22202;DHT22;11266;51.522;6.302;2023-08-20T02:10:29;18.40;99.90
22202;DHT22;11266;51.522;6.302;2023-08-20T02:11:15;18.40;99.90
22202;DHT22;11266;51.522;6.302;2023-08-20T02:12:01;18.40;99.90
22202;DHT22;11266;51.522;6.302;2023-08-20T02:12:46;18.40;99.90
22202;DHT22;11266;51.522;6.302;2023-08-20T02:13:32;18.40;99.90
22202;DHT22;11266;51.522;6.302;2023-08-20T02:14:17;18.40;99.90
22202;DHT22;11266;51.522;6.302;2023-08-20T02:15:03;18.40;99.90
22202;DHT22;11266;51.522;6.302;2023-08-20T02:15:58;18.40;99.90
22202;DHT22;11266;51.522;6.302;2023-08-20T02:16:44;18.40;99.90
22202;DHT22;11266;51.522;6.302;2023-08-20T02:17:29;18.40;99.90
22202;DHT22;11266;51.522;6.302;2023-08-20T02:18:15;18.30;99.90
22202;DHT22;11266;51.522;6.302;2023-08-20T02:19:02;18.40;99.90
22202;DHT22;11266;51.522;6.302;2023-08-20T02:19:48;18.30;99.90
22202;DHT22;11266;51.522;6.302;2023-08-20T02:20:33;18.30;99.90
22202;DHT22;11266;51.522;6.302;2023-08-20T02:21:19;18.30;99.90
22202;DHT22;11266;51.522;6.302;2023-08-20T02:22:05;18.30;99.90
22202;DHT22;11266;51.522;6.302;2023-08-20T02:22:50;18.20;99.90
22202;DHT22;11266;51.522;6.302;2023-08-20T02:23:36;18.30;99.90
22202;DHT22;11266;51.522;6.302;2023-08-20T02:24:22;18.30;99.90
22202;DHT22;11266;51.522;6.302;2023-08-20T02:25:07;18.30;99.90
22202;DHT22;11266;51.522;6.302;2023-08-20T02:25:53;18.30;99.90
22202;DHT22;11266;51.522;6.302;2023-08-20T02:26:39;18.30;99.90
22202;DHT22;11266;51.522;6.302;2023-08-20T02:27:24;18.40;99.90
22202;DHT22;11266;51.522;6.302;2023-08-20T02:28:10;18.40;99.90
22202;DHT22;11266;51.522;6.302;2023-08-20T02:28:55;18.40;99.90
22202;DHT22;11266;51.522;6.302;2023-08-20T02:29:41;18.40;99.90
22202;DHT22;11266;51.522;6.302;2023-08-20T02:30:26;18.40;99.90
22202;DHT22;11266;51.522;6.302;2023-08-20T02:31:12;18.40;99.90
22202;DHT22;11266;51.522;6.302;2023-08-20T02:31:57;18.40;99.90
22202;DHT22;11266;51.522;6.302;2023-08-20T02:32:43;18.40;99.90
22202;DHT22;11266;51.522;6.302;2023-08-20T02:33:28;18.40;99.90
22202;DHT22;11266;51.522;6.302;2023-08-20T02:34:14;18.50;99.90
22202;DHT22;11266;51.522;6.302;2023-08-20T02:35:00;18.40;99.90
22202;DHT22;11266;51.522;6.302;2023-08-20T02:35:45;18.40;99.90
22202;DHT22;11266;51.522;6.302;2023-08-20T02:36:31;18.40;99.90
22202;DHT22;11266;51.522;6.302;2023-08-20T02:37:16;18.40;99.90
22202;DHT22;11266;51.522;6.302;2023-08-20T02:38:02;18.50;99.90
22202;DHT22;11266;51.522;6.302;2023-08-20T02:38:48;18.40;99.90
22202;DHT22;11266;51.522;6.302;2023-08-20T02:39:33;18.50;99.90
22202;DHT22;11266;51.522;6.302;2023-08-20T02:40:19;18.50;99.90
22202;DHT22;11266;51.522;6.302;2023-08-20T02:41:04;18.50;99.90
22202;DHT22;11266;51.522;6.302;2023-08-20T02:41:50;18.50;99.90
22202;DHT22;11266;51.522;6.302;2023-08-20T02:42:36;18.50;99.90
22202;DHT22;11266;51.522;6.302;2023-08-20T02:43:21;18.50;99.90
22202;DHT22;11266;51.522;6.302;2023-08-20T02:44:07;18.50;99.90
22202;DHT22;11266;51.522;6.302;2023-08-20T02:44:52;18.50;99.90
22202;DHT22;11266;51.522;6.302;2023-08-20T02:45:42;18.60;99.90
22202;DHT22;11266;51.522;6.302;2023-08-20T02:46:27;18.60;99.90
22202;DHT22;11266;51.522;6.302;2023-08-20T02:47:13;18.60;99.90
22202;DHT22;11266;51.522;6.302;2023-08-20T02:48:00;18.60;99.90
22202;DHT22;11266;51.522;6.302;2023-08-20T02:48:45;18.60;99.90
22202;DHT22;11266;51.522;6.302;2023-08-20T02:49:31;18.50;99.90
22202;DHT22;11266;51.522;6.302;2023-08-20T02:50:16;18.50;99.90
22202;DHT22;11266;51.522;6.302;2023-08-20T02:51:02;18.50;99.90
22202;DHT22;11266;51.522;6.302;2023-08-20T02:51:48;18.50;99.90
22202;DHT22;11266;51.522;6.302;2023-08-20T02:52:33;18.40;99.90
22202;DHT22;11266;51.522;6.302;2023-08-20T02:53:19;18.40;99.90
22202;DHT22;11266;51.522;6.302;2023-08-20T02:54:05;18.40;99.90
22202;DHT22;11266;51.522;6.302;2023-08-20T02:54:50;18.40;99.90
22202;DHT22;11266;51.522;6.302;2023-08-20T02:55:36;18.40;99.90
22202;DHT22;11266;51.522;6.302;2023-08-20T02:56:21;18.40;99.90
22202;DHT22;11266;51.522;6.302;2023-08-20T02:57:07;18.40;99.90
22202;DHT22;11266;51.522;6.302;2023-08-20T02:57:52;18.40;99.90
22202;DHT22;11266;51.522;6.302;2023-08-20T02:58:38;18.40;99.90
22202;DHT22;11266;51.522;6.302;2023-08-20T02:59:23;18.40;99.90
22202;DHT22;11266;51.522;6.302;2023-08-20T03:00:09;18.40;99.90
22202;DHT22;11266;51.522;6.302;2023-08-20T03:00:57;18.50;99.90
22202;DHT22;11266;51.522;6.302;2023-08-20T03:01:43;18.50;99.90
22202;DHT22;11266;51.522;6.302;2023-08-20T03:02:28;18.50;99.90
22202;DHT22;11266;51.522;6.302;2023-08-20T03:03:14;18.60;99.90
22202;DHT22;11266;51.522;6.302;2023-08-20T03:03:59;18.60;99.90
22202;DHT22;11266;51.522;6.302;2023-08-20T03:04:45;18.60;99.90
22202;DHT22;11266;51.522;6.302;2023-08-20T03:05:31;18.60;99.90
22202;DHT22;11266;51.522;6.302;2023-08-20T03:06:17;18.60;99.90
22202;DHT22;11266;51.522;6.302;2023-08-20T03:07:03;18.50;99.90
22202;DHT22;11266;51.522;6.302;2023-08-20T03:07:48;18.50;99.90
22202;DHT22;11266;51.522;6.302;2023-08-20T03:08:34;18.50;99.90
22202;DHT22;11266;51.522;6.302;2023-08-20T03:09:20;18.50;99.90
22202;DHT22;11266;51.522;6.302;2023-08-20T03:10:06;18.40;99.90
22202;DHT22;11266;51.522;6.302;2023-08-20T03:10:51;18.40;99.90
22202;DHT22;11266;51.522;6.302;2023-08-20T03:11:37;18.40;99.90
22202;DHT22;11266;51.522;6.302;2023-08-20T03:12:22;18.40;99.90
22202;DHT22;11266;51.522;6.302;2023-08-20T03:13:08;18.40;99.90
22202;DHT22;11266;51.522;6.302;2023-08-20T03:13:54;18.40;99.90
22202;DHT22;11266;51.522;6.302;2023-08-20T03:14:39;18.40;99.90
22202;DHT22;11266;51.522;6.302;2023-08-20T03:15:25;18.30;99.90
22202;DHT22;11266;51.522;6.302;2023-08-20T03:16:10;18.40;99.90
22202;DHT22;11266;51.522;6.302;2023-08-20T03:16:56;18.30;99.90
22202;DHT22;11266;51.522;6.302;2023-08-20T03:17:42;18.30;99.90
22202;DHT22;11266;51.522;6.302;2023-08-20T03:18:27;18.30;99.90
22202;DHT22;11266;51.522;6.302;2023-08-20T03:19:15;18.30;99.90
22202;DHT22;11266;51.522;6.302;2023-08-20T03:20:00;18.30;99.90
22202;DHT22;11266;51.522;6.302;2023-08-20T03:20:46;18.30;99.90
22202;DHT22;11266;51.522;6.302;2023-08-20T03:21:32;18.30;99.90
22202;DHT22;11266;51.522;6.302;2023-08-20T03:22:17;18.30;99.90
22202;DHT22;11266;51.522;6.302;2023-08-20T03:23:03;18.30;99.90
22202;DHT22;11266;51.522;6.302;2023-08-20T03:23:49;18.30;99.90
22202;DHT22;11266;51.522;6.302;2023-08-20T03:24:35;18.30;99.90
22202;DHT22;11266;51.522;6.302;2023-08-20T03:25:20;18.30;99.90
22202;DHT22;11266;51.522;6.302;2023-08-20T03:26:06;18.30;99.90
22202;DHT22;11266;51.522;6.302;2023-08-20T03:26:51;18.30;99.90
22202;DHT22;11266;51.522;6.302;2023-08-20T03:27:37;18.30;99.90
22202;DHT22;11266;51.522;6.302;2023-08-20T03:28:23;18.30;99.90
22202;DHT22;11266;51.522;6.302;2023-08-20T03:29:08;18.30;99.90
22202;DHT22;11266;51.522;6.302;2023-08-20T03:29:54;18.20;99.90
22202;DHT22;11266;51.522;6.302;2023-08-20T03:30:39;18.20;99.90
22202;DHT22;11266;51.522;6.302;2023-08-20T03:31:25;18.30;99.90
22202;DHT22;11266;51.522;6.302;2023-08-20T03:32:11;18.30;99.90
22202;DHT22;11266;51.522;6.302;2023-08-20T03:32:56;18.30;99.90
22202;DHT22;11266;51.522;6.302;2023-08-20T03:33:42;18.30;99.90
22202;DHT22;11266;51.522;6.302;2023-08-20T03:34:27;18.30;99.90
22202;DHT22;11266;51.522;6.302;2023-08-20T03:35:13;18.30;99.90
22202;DHT22;11266;51.522;6.302;2023-08-20T03:35:58;18.30;99.90
22202;DHT22;11266;51.522;6.302;2023-08-20T03:36:44;18.30;99.90
22202;DHT22;11266;51.522;6.302;2023-08-20T03:37:30;18.30;99.90
22202;DHT22;11266;51.522;6.302;2023-08-20T03:38:15;18.30;99.90
22202;DHT22;11266;51.522;6.302;2023-08-20T03:39:03;18.30;99.90
22202;DHT22;11266;51.522;6.302;2023-08-20T03:39:49;18.30;99.90
22202;DHT22;11266;51.522;6.302;2023-08-20T03:40:35;18.30;99.90
22202;DHT22;11266;51.522;6.302;2023-08-20T03:41:20;18.30;99.90
22202;DHT22;11266;51.522;6.302;2023-08-20T03:42:06;18.30;99.90
22202;DHT22;11266;51.522;6.302;2023-08-20T03:42:51;18.40;99.90
22202;DHT22;11266;51.522;6.302;2023-08-20T03:43:37;18.30;99.90
22202;DHT22;11266;51.522;6.302;2023-08-20T03:44:23;18.30;99.90
22202;DHT22;11266;51.522;6.302;2023-08-20T03:45:08;18.40;99.90
22202;DHT22;11266;51.522;6.302;2023-08-20T03:45:54;18.40;99.90
22202;DHT22;11266;51.522;6.302;2023-08-20T03:46:40;18.40;99.90
22202;DHT22;11266;51.522;6.302;2023-08-20T03:47:25;18.30;99.90
22202;DHT22;11266;51.522;6.302;2023-08-20T03:48:11;18.30;99.90
22202;DHT22;11266;51.522;6.302;2023-08-20T03:48:56;18.30;99.90
22202;DHT22;11266;51.522;6.302;2023-08-20T03:49:42;18.20;99.90
22202;DHT22;11266;51.522;6.302;2023-08-20T03:50:27;18.20;99.90
22202;DHT22;11266;51.522;6.302;2023-08-20T03:51:13;18.20;99.90
22202;DHT22;11266;51.522;6.302;2023-08-20T03:51:58;18.30;99.90
22202;DHT22;11266;51.522;6.302;2023-08-20T03:52:46;18.20;99.90
22202;DHT22;11266;51.522;6.302;2023-08-20T03:53:32;18.20;99.90
22202;DHT22;11266;51.522;6.302;2023-08-20T03:54:17;18.20;99.90
22202;DHT22;11266;51.522;6.302;2023-08-20T03:55:04;18.20;99.90
22202;DHT22;11266;51.522;6.302;2023-08-20T03:55:49;18.20;99.90
22202;DHT22;11266;51.522;6.302;2023-08-20T03:56:35;18.20;99.90
22202;DHT22;11266;51.522;6.302;2023-08-20T03:57:21;18.20;99.90
22202;DHT22;11266;51.522;6.302;2023-08-20T03:58:07;18.20;99.90
22202;DHT22;11266;51.522;6.302;2023-08-20T03:58:53;18.20;99.90
22202;DHT22;11266;51.522;6.302;2023-08-20T03:59:38;18.20;99.90
22202;DHT22;11266;51.522;6.302;2023-08-20T04:00:24;18.20;99.90
22202;DHT22;11266;51.522;6.302;2023-08-20T04:01:09;18.20;99.90
22202;DHT22;11266;51.522;6.302;2023-08-20T04:01:55;18.20;99.90
22202;DHT22;11266;51.522;6.302;2023-08-20T04:02:40;18.20;99.90
22202;DHT22;11266;51.522;6.302;2023-08-20T04:03:26;18.20;99.90
22202;DHT22;11266;51.522;6.302;2023-08-20T04:04:11;18.20;99.90
22202;DHT22;11266;51.522;6.302;2023-08-20T04:04:58;18.20;99.90
22202;DHT22;11266;51.522;6.302;2023-08-20T04:05:43;18.20;99.90
22202;DHT22;11266;51.522;6.302;2023-08-20T04:06:30;18.20;99.90
22202;DHT22;11266;51.522;6.302;2023-08-20T04:07:17;18.20;99.90
22202;DHT22;11266;51.522;6.302;2023-08-20T04:08:06;18.20;99.90
22202;DHT22;11266;51.522;6.302;2023-08-20T04:08:52;18.20;99.90
22202;DHT22;11266;51.522;6.302;2023-08-20T04:09:37;18.20;99.90
22202;DHT22;11266;51.522;6.302;2023-08-20T04:10:23;18.20;99.90
22202;DHT22;11266;51.522;6.302;2023-08-20T04:11:09;18.20;99.90
22202;DHT22;11266;51.522;6.302;2023-08-20T04:11:55;18.20;99.90
22202;DHT22;11266;51.522;6.302;2023-08-20T04:12:40;18.10;99.90
22202;DHT22;11266;51.522;6.302;2023-08-20T04:13:26;18.20;99.90
22202;DHT22;11266;51.522;6.302;2023-08-20T04:14:11;18.20;99.90
22202;DHT22;11266;51.522;6.302;2023-08-20T04:14:57;18.20;99.90
22202;DHT22;11266;51.522;6.302;2023-08-20T04:15:43;18.10;99.90
22202;DHT22;11266;51.522;6.302;2023-08-20T04:16:29;18.20;99.90
22202;DHT22;11266;51.522;6.302;2023-08-20T04:17:15;18.10;99.90
22202;DHT22;11266;51.522;6.302;2023-08-20T04:18:00;18.10;99.90
22202;DHT22;11266;51.522;6.302;2023-08-20T04:18:46;18.10;99.90
22202;DHT22;11266;51.522;6.302;2023-08-20T04:19:31;18.10;99.90
22202;DHT22;11266;51.522;6.302;2023-08-20T04:20:17;18.10;99.90
22202;DHT22;11266;51.522;6.302;2023-08-20T04:21:03;18.10;99.90
22202;DHT22;11266;51.522;6.302;2023-08-20T04:21:48;18.10;99.90
22202;DHT22;11266;51.522;6.302;2023-08-20T04:22:34;18.10;99.90
22202;DHT22;11266;51.522;6.302;2023-08-20T04:23:20;18.10;99.90
22202;DHT22;11266;51.522;6.302;2023-08-20T04:24:05;18.10;99.90
22202;DHT22;11266;51.522;6.302;2023-08-20T04:24:51;18.10;99.90
22202;DHT22;11266;51.522;6.302;2023-08-20T04:25:36;18.20;99.90
22202;DHT22;11266;51.522;6.302;2023-08-20T04:26:22;18.20;99.90
22202;DHT22;11266;51.522;6.302;2023-08-20T04:27:07;18.20;99.90
22202;DHT22;11266;51.522;6.302;2023-08-20T04:27:53;18.10;99.90
22202;DHT22;11266;51.522;6.302;2023-08-20T04:28:39;18.10;99.90
22202;DHT22;11266;51.522;6.302;2023-08-20T04:29:24;18.10;99.90
22202;DHT22;11266;51.522;6.302;2023-08-20T04:30:10;18.10;99.90
22202;DHT22;11266;51.522;6.302;2023-08-20T04:30:56;18.10;99.90
22202;DHT22;11266;51.522;6.302;2023-08-20T04:31:42;18.10;99.90
22202;DHT22;11266;51.522;6.302;2023-08-20T04:32:27;18.00;99.90
22202;DHT22;11266;51.522;6.302;2023-08-20T04:33:13;18.00;99.90
22202;DHT22;11266;51.522;6.302;2023-08-20T04:33:58;18.10;99.90
22202;DHT22;11266;51.522;6.302;2023-08-20T04:34:44;18.00;99.90
22202;DHT22;11266;51.522;6.302;2023-08-20T04:35:31;18.00;99.90
22202;DHT22;11266;51.522;6.302;2023-08-20T04:36:17;18.00;99.90
22202;DHT22;11266;51.522;6.302;2023-08-20T04:37:02;18.00;99.90
22202;DHT22;11266;51.522;6.302;2023-08-20T04:37:48;18.00;99.90
22202;DHT22;11266;51.522;6.302;2023-08-20T04:38:34;18.00;99.90
22202;DHT22;11266;51.522;6.302;2023-08-20T04:39:19;18.00;99.90
22202;DHT22;11266;51.522;6.302;2023-08-20T04:40:05;18.00;99.90
22202;DHT22;11266;51.522;6.302;2023-08-20T04:40:51;18.00;99.90
22202;DHT22;11266;51.522;6.302;2023-08-20T04:41:37;18.00;99.90
22202;DHT22;11266;51.522;6.302;2023-08-20T04:42:22;18.00;99.90
22202;DHT22;11266;51.522;6.302;2023-08-20T04:43:08;18.00;99.90
22202;DHT22;11266;51.522;6.302;2023-08-20T04:43:54;18.00;99.90
22202;DHT22;11266;51.522;6.302;2023-08-20T04:44:39;18.00;99.90
22202;DHT22;11266;51.522;6.302;2023-08-20T04:45:25;18.00;99.90
22202;DHT22;11266;51.522;6.302;2023-08-20T04:46:10;18.00;99.90
22202;DHT22;11266;51.522;6.302;2023-08-20T04:46:56;17.90;99.90
22202;DHT22;11266;51.522;6.302;2023-08-20T04:47:42;17.90;99.90
22202;DHT22;11266;51.522;6.302;2023-08-20T04:48:27;18.00;99.90
22202;DHT22;11266;51.522;6.302;2023-08-20T04:49:13;18.00;99.90
22202;DHT22;11266;51.522;6.302;2023-08-20T04:49:58;17.90;99.90
22202;DHT22;11266;51.522;6.302;2023-08-20T04:50:44;18.00;99.90
22202;DHT22;11266;51.522;6.302;2023-08-20T04:51:30;18.00;99.90
22202;DHT22;11266;51.522;6.302;2023-08-20T04:52:15;18.00;99.90
22202;DHT22;11266;51.522;6.302;2023-08-20T04:53:01;18.00;99.90
22202;DHT22;11266;51.522;6.302;2023-08-20T04:53:47;18.00;99.90
22202;DHT22;11266;51.522;6.302;2023-08-20T04:54:32;17.90;99.90
22202;DHT22;11266;51.522;6.302;2023-08-20T04:55:18;18.00;99.90
22202;DHT22;11266;51.522;6.302;2023-08-20T04:56:04;18.00;99.90
22202;DHT22;11266;51.522;6.302;2023-08-20T04:56:49;17.90;99.90
22202;DHT22;11266;51.522;6.302;2023-08-20T04:57:35;18.00;99.90
22202;DHT22;11266;51.522;6.302;2023-08-20T04:58:20;17.90;99.90
22202;DHT22;11266;51.522;6.302;2023-08-20T04:59:06;18.00;99.90
22202;DHT22;11266;51.522;6.302;2023-08-20T04:59:51;18.00;99.90